createdAt,value
2022-10-24T00:00:33.950Z,98649.91
2022-10-24T00:03:00.469Z,98658.91
2022-10-24T00:05:27.003Z,98644.13
2022-10-24T00:07:53.638Z,98644.00
2022-10-24T00:10:20.756Z,98648.28
2022-10-24T00:12:47.546Z,98649.22
2022-10-24T00:15:14.569Z,98644.13
2022-10-24T00:17:41.039Z,98656.59
2022-10-24T00:20:08.323Z,98649.63
2022-10-24T00:22:34.762Z,98658.72
2022-10-24T00:25:01.472Z,98657.53
2022-10-24T00:27:27.919Z,98654.56
2022-10-24T00:29:54.477Z,98652.88
2022-10-24T00:32:20.957Z,98654.91
2022-10-24T00:34:47.529Z,98651.94
2022-10-24T00:37:14.005Z,98653.78
2022-10-24T00:39:40.597Z,98647.53
2022-10-24T00:42:07.373Z,98645.81
2022-10-24T00:44:38.528Z,98643.09
2022-10-24T00:47:12.874Z,98641.88
2022-10-24T00:49:45.237Z,98642.06
2022-10-24T00:52:13.594Z,98637.25
2022-10-24T00:54:42.244Z,98635.81
2022-10-24T00:57:18.590Z,98625.78
2022-10-24T00:59:47.820Z,98623.81
2022-10-24T01:04:47.676Z,98610.59
2022-10-24T01:07:19.436Z,98597.94
2022-10-24T01:10:04.227Z,98598.31
2022-10-24T01:12:57.195Z,98596.38
2022-10-24T01:15:34.996Z,98596.09
2022-10-24T01:18:18.326Z,98610.66
2022-10-24T01:21:25.009Z,98602.22
2022-10-24T01:24:01.390Z,98617.09
2022-10-24T01:27:06.433Z,98606.50
2022-10-24T01:30:02.414Z,98601.47
2022-10-24T01:32:41.740Z,98605.91
2022-10-24T01:35:11.061Z,98610.94
2022-10-24T01:37:43.949Z,98616.53
2022-10-24T01:40:26.078Z,98615.81
2022-10-24T01:42:56.851Z,98613.28
2022-10-24T01:45:30.708Z,98615.69
2022-10-24T01:48:00.889Z,98611.53
2022-10-24T01:50:29.397Z,98605.78
2022-10-24T01:52:57.802Z,98602.91
2022-10-24T01:55:24.670Z,98591.44
2022-10-24T01:57:51.141Z,98588.47
2022-10-24T02:00:23.283Z,98587.63
2022-10-24T02:02:57.581Z,98587.16
2022-10-24T02:05:29.009Z,98580.66
2022-10-24T02:08:00.902Z,98570.41
2022-10-24T02:10:31.398Z,98566.81
2022-10-24T02:13:28.222Z,98574.63
2022-10-24T02:15:58.560Z,98573.75
2022-10-24T02:18:26.115Z,98579.91
2022-10-24T02:20:59.140Z,98581.09
2022-10-24T02:24:05.497Z,98593.41
2022-10-24T02:26:39.506Z,98596.63
2022-10-24T02:29:14.303Z,98591.06
2022-10-24T02:31:47.160Z,98595.69
2022-10-24T02:34:14.901Z,98593.13
2022-10-24T02:36:44.014Z,98599.81
2022-10-24T02:39:12.085Z,98594.78
2022-10-24T02:41:42.819Z,98592.25
2022-10-24T02:44:11.000Z,98588.06
2022-10-24T02:46:38.665Z,98585.38
2022-10-24T02:49:06.159Z,98582.69
2022-10-24T02:51:37.010Z,98595.69
2022-10-24T02:54:04.696Z,98592.25
2022-10-24T02:56:32.902Z,98593.63
2022-10-24T02:58:59.466Z,98594.00
2022-10-24T03:01:26.259Z,98583.94
2022-10-24T03:03:52.766Z,98581.88
2022-10-24T03:06:19.628Z,98580.53
2022-10-24T03:08:46.054Z,98582.19
2022-10-24T03:11:12.768Z,98584.25
2022-10-24T03:13:39.222Z,98570.28
2022-10-24T03:16:07.804Z,98565.09
2022-10-24T03:18:36.792Z,98563.69
2022-10-24T03:21:03.487Z,98562.69
2022-10-24T03:23:30.626Z,98564.25
2022-10-24T03:25:59.110Z,98555.44
2022-10-24T03:28:26.024Z,98553.41
2022-10-24T03:30:53.285Z,98544.25
2022-10-24T03:33:20.248Z,98550.25
2022-10-24T03:35:46.802Z,98544.72
2022-10-24T03:38:13.291Z,98529.22
2022-10-24T03:40:39.916Z,98540.28
2022-10-24T03:43:06.441Z,98531.78
2022-10-24T03:45:33.108Z,98540.09
2022-10-24T03:47:59.555Z,98544.00
2022-10-24T03:50:26.153Z,98545.69
2022-10-24T03:52:52.577Z,98540.56
2022-10-24T03:55:19.177Z,98543.25
2022-10-24T03:57:45.883Z,98536.00
2022-10-24T04:00:13.459Z,98535.34
2022-10-24T04:02:41.649Z,98534.22
2022-10-24T04:05:10.648Z,98533.38
2022-10-24T04:07:37.398Z,98524.66
2022-10-24T04:10:04.851Z,98530.59
2022-10-24T04:12:31.649Z,98535.34
2022-10-24T04:15:02.379Z,98531.69
2022-10-24T04:17:31.494Z,98523.97
2022-10-24T04:19:58.084Z,98533.13
2022-10-24T04:22:24.771Z,98536.81
2022-10-24T04:24:51.254Z,98534.88
2022-10-24T04:27:17.731Z,98534.22
2022-10-24T04:29:44.336Z,98538.13
2022-10-24T04:32:10.772Z,98534.97
2022-10-24T04:34:37.539Z,98526.41
2022-10-24T04:37:04.112Z,98539.72
2022-10-24T04:39:30.810Z,98531.72
2022-10-24T04:41:57.397Z,98526.41
2022-10-24T04:44:25.264Z,98526.34
2022-10-24T04:46:51.767Z,98528.53
2022-10-24T04:49:18.796Z,98524.09
2022-10-24T04:51:45.690Z,98526.41
2022-10-24T04:54:12.143Z,98525.38
2022-10-24T04:56:38.771Z,98525.09
2022-10-24T04:59:05.229Z,98532.28
2022-10-24T05:01:32.873Z,98536.91
2022-10-24T05:03:59.380Z,98528.09
2022-10-24T05:06:26.057Z,98523.41
2022-10-24T05:08:53.164Z,98530.31
2022-10-24T05:11:19.764Z,98536.53
2022-10-24T05:13:46.325Z,98536.19
2022-10-24T05:16:12.781Z,98534.69
2022-10-24T05:18:39.309Z,98527.41
2022-10-24T05:21:06.309Z,98533.28
2022-10-24T05:23:33.095Z,98529.56
2022-10-24T05:25:59.596Z,98521.25
2022-10-24T05:28:26.231Z,98526.75
2022-10-24T05:30:53.574Z,98534.31
2022-10-24T05:33:20.191Z,98534.56
2022-10-24T05:35:46.720Z,98527.63
2022-10-24T05:38:13.407Z,98522.69
2022-10-24T05:40:40.004Z,98529.09
2022-10-24T05:43:06.513Z,98527.13
2022-10-24T05:45:33.238Z,98539.34
2022-10-24T05:47:59.728Z,98538.03
2022-10-24T05:50:27.052Z,98535.72
2022-10-24T05:52:53.889Z,98534.41
2022-10-24T05:55:20.450Z,98533.75
2022-10-24T05:57:47.429Z,98538.22
2022-10-24T06:00:17.272Z,98529.56
2022-10-24T06:02:44.442Z,98523.69
2022-10-24T06:05:12.062Z,98534.13
2022-10-24T06:07:39.656Z,98538.22
2022-10-24T06:10:06.784Z,98545.28
2022-10-24T06:12:33.365Z,98552.63
2022-10-24T06:15:00.387Z,98555.53
2022-10-24T06:17:27.129Z,98566.88
2022-10-24T06:19:53.740Z,98564.09
2022-10-24T06:22:24.004Z,98558.31
2022-10-24T06:24:51.026Z,98556.28
2022-10-24T06:27:17.493Z,98554.31
2022-10-24T06:29:44.009Z,98558.72
2022-10-24T06:32:10.568Z,98562.22
2022-10-24T06:34:37.110Z,98556.53
2022-10-24T06:37:03.871Z,98566.50
2022-10-24T06:39:30.543Z,98560.66
2022-10-24T06:41:57.044Z,98560.84
2022-10-24T06:44:23.507Z,98555.63
2022-10-24T06:46:50.001Z,98558.41
2022-10-24T06:49:17.230Z,98558.41
2022-10-24T06:51:44.022Z,98550.88
2022-10-24T06:54:11.104Z,98553.47
2022-10-24T06:56:37.728Z,98552.59
2022-10-24T06:59:14.060Z,98559.41
2022-10-24T07:01:40.749Z,98552.25
2022-10-24T07:04:08.222Z,98546.91
2022-10-24T07:06:35.076Z,98555.03
2022-10-24T07:09:03.941Z,98547.66
2022-10-24T07:11:31.307Z,98551.34
2022-10-24T07:14:00.887Z,98559.94
2022-10-24T07:16:28.794Z,98567.13
2022-10-24T07:18:56.546Z,98565.44
2022-10-24T07:21:29.492Z,98569.00
2022-10-24T07:23:56.962Z,98565.31
2022-10-24T07:26:25.309Z,98572.03
2022-10-24T07:28:58.416Z,98572.31
2022-10-24T07:31:28.937Z,98577.97
2022-10-24T07:33:55.645Z,98576.34
2022-10-24T07:36:24.974Z,98585.75
2022-10-24T07:38:53.269Z,98582.84
2022-10-24T07:41:20.185Z,98585.38
2022-10-24T07:43:46.757Z,98589.75
2022-10-24T07:46:15.515Z,98596.59
2022-10-24T07:48:42.516Z,98586.22
2022-10-24T07:51:11.383Z,98591.88
2022-10-24T07:53:38.224Z,98584.78
2022-10-24T07:56:09.299Z,98592.59
2022-10-24T07:58:36.652Z,98604.22
2022-10-24T08:01:05.775Z,98594.84
2022-10-24T08:03:32.249Z,98602.31
2022-10-24T08:05:59.042Z,98603.78
2022-10-24T08:08:35.935Z,98613.66
2022-10-24T08:11:12.013Z,98624.19
2022-10-24T08:13:39.049Z,98613.47
2022-10-24T08:16:10.433Z,98614.84
2022-10-24T08:18:39.737Z,98613.91
2022-10-24T08:21:09.257Z,98611.56
2022-10-24T08:23:40.139Z,98617.00
2022-10-24T08:26:08.434Z,98623.66
2022-10-24T08:28:36.037Z,98621.41
2022-10-24T08:31:06.203Z,98620.84
2022-10-24T08:33:33.514Z,98630.22
2022-10-24T08:36:03.907Z,98627.72
2022-10-24T08:38:30.856Z,98618.16
2022-10-24T08:40:58.553Z,98618.66
2022-10-24T08:43:26.073Z,98615.47
2022-10-24T08:46:08.587Z,98611.56
2022-10-24T08:48:44.075Z,98618.31
2022-10-24T08:51:38.730Z,98612.13
2022-10-24T08:54:10.161Z,98597.97
2022-10-24T08:56:36.700Z,98600.84
2022-10-24T08:59:04.786Z,98615.19
2022-10-24T09:02:00.583Z,98609.31
2022-10-24T09:04:36.585Z,98598.88
2022-10-24T09:07:04.961Z,98600.34
2022-10-24T09:09:40.549Z,98608.88
2022-10-24T09:12:13.479Z,98599.91
2022-10-24T09:14:42.341Z,98594.97
2022-10-24T09:17:34.921Z,98600.41
2022-10-24T09:20:15.490Z,98585.22
2022-10-24T09:22:44.392Z,98599.00
2022-10-24T09:25:16.929Z,98600.91
2022-10-24T09:27:44.253Z,98606.75
2022-10-24T09:30:37.505Z,98603.06
2022-10-24T09:33:33.681Z,98611.09
2022-10-24T09:36:04.447Z,98600.69
2022-10-24T09:38:34.740Z,98605.09
2022-10-24T09:41:05.847Z,98615.34
2022-10-24T09:43:48.128Z,98607.00
2022-10-24T09:46:24.076Z,98603.19
2022-10-24T09:49:18.872Z,98616.38
2022-10-24T09:52:21.487Z,98619.53
2022-10-24T09:55:18.588Z,98609.09
2022-10-24T09:57:45.563Z,98624.50
2022-10-24T10:00:41.651Z,98622.63
2022-10-24T10:03:23.544Z,98620.31
2022-10-24T10:05:54.232Z,98620.72
2022-10-24T10:08:27.082Z,98625.72
2022-10-24T10:10:59.382Z,98629.88
2022-10-24T10:13:28.096Z,98624.88
2022-10-24T10:16:02.695Z,98629.66
2022-10-24T10:18:29.105Z,98619.06
2022-10-24T10:21:01.735Z,98637.34
2022-10-24T10:23:32.975Z,98640.28
2022-10-24T10:26:07.691Z,98637.34
2022-10-24T10:28:36.870Z,98648.19
2022-10-24T10:31:04.123Z,98638.88
2022-10-24T10:33:41.300Z,98649.09
2022-10-24T10:36:10.840Z,98653.91
2022-10-24T10:39:14.922Z,98647.25
2022-10-24T10:42:01.504Z,98649.97
2022-10-24T10:44:37.345Z,98649.97
2022-10-24T10:47:23.901Z,98662.75
2022-10-24T10:49:57.855Z,98650.63
2022-10-24T10:52:50.594Z,98652.53
2022-10-24T10:55:23.947Z,98657.97
2022-10-24T10:58:20.494Z,98655.69
2022-10-24T11:00:55.669Z,98656.53
2022-10-24T11:03:24.822Z,98659.47
2022-10-24T11:06:14.148Z,98657.38
2022-10-24T11:09:02.771Z,98659.44
2022-10-24T11:11:33.678Z,98660.94
2022-10-24T11:14:25.228Z,98662.63
2022-10-24T11:16:56.617Z,98667.59
2022-10-24T11:19:39.784Z,98671.13
2022-10-24T11:22:12.726Z,98660.06
2022-10-24T11:24:49.038Z,98661.75
2022-10-24T11:27:24.389Z,98663.84
2022-10-24T11:29:59.073Z,98656.31
2022-10-24T11:32:41.413Z,98666.34
2022-10-24T11:35:22.294Z,98663.38
2022-10-24T11:37:53.425Z,98670.47
2022-10-24T11:40:22.898Z,98668.56
2022-10-24T11:42:58.908Z,98665.88
2022-10-24T11:45:37.620Z,98666.97
2022-10-24T11:48:20.376Z,98669.28
2022-10-24T11:51:03.479Z,98681.81
2022-10-24T11:53:31.158Z,98678.06
2022-10-24T11:56:13.452Z,98682.66
2022-10-24T11:58:55.028Z,98664.25
2022-10-24T12:01:24.249Z,98658.63
2022-10-24T12:04:39.295Z,98664.72
2022-10-24T12:07:08.395Z,98668.88
2022-10-24T12:09:37.760Z,98673.63
2022-10-24T12:12:17.077Z,98642.94
2022-10-24T12:14:59.041Z,98667.38
2022-10-24T12:17:45.469Z,98664.25
2022-10-24T12:20:17.730Z,98659.22
2022-10-24T12:22:45.533Z,98652.13
2022-10-24T12:25:38.903Z,98655.94
2022-10-24T12:28:21.479Z,98650.06
2022-10-24T12:31:15.847Z,98651.53
2022-10-24T12:33:44.003Z,98644.84
2022-10-24T12:36:11.043Z,98657.59
2022-10-24T12:38:37.502Z,98652.78
2022-10-24T12:41:09.176Z,98648.81
2022-10-24T12:43:36.839Z,98639.00
2022-10-24T12:46:21.738Z,98649.66
2022-10-24T12:48:58.055Z,98647.53
2022-10-24T12:51:37.327Z,98644.56
2022-10-24T12:54:03.734Z,98642.47
2022-10-24T12:56:32.622Z,98645.00
2022-10-24T12:59:22.632Z,98642.72
2022-10-24T13:01:51.846Z,98645.84
2022-10-24T13:04:45.760Z,98626.44
2022-10-24T13:07:51.401Z,98629.97
2022-10-24T13:10:36.968Z,98625.78
2022-10-24T13:13:12.453Z,98623.31
2022-10-24T13:15:57.007Z,98637.31
2022-10-24T13:18:54.252Z,98635.88
2022-10-24T13:21:28.598Z,98642.16
2022-10-24T13:24:15.239Z,98649.19
2022-10-24T13:26:47.558Z,98635.63
2022-10-24T13:29:28.540Z,98648.78
2022-10-24T13:32:04.434Z,98647.56
2022-10-24T13:34:45.706Z,98643.16
2022-10-24T13:37:26.524Z,98636.91
2022-10-24T13:39:57.621Z,98635.22
2022-10-24T13:42:26.630Z,98630.44
2022-10-24T13:44:58.957Z,98639.41
2022-10-24T13:47:28.111Z,98645.25
2022-10-24T13:50:04.796Z,98646.06
2022-10-24T13:52:54.772Z,98646.91
2022-10-24T13:55:36.296Z,98644.63
2022-10-24T13:58:05.686Z,98640.44
2022-10-24T14:00:36.143Z,98645.44
2022-10-24T14:03:16.921Z,98642.94
2022-10-24T14:06:01.579Z,98654.00
2022-10-24T14:08:37.465Z,98649.19
2022-10-24T14:11:18.568Z,98647.47
2022-10-24T14:14:10.972Z,98648.72
2022-10-24T14:16:39.539Z,98643.91
2022-10-24T14:19:17.689Z,98649.53
2022-10-24T14:21:46.627Z,98661.22
2022-10-24T14:24:20.374Z,98658.28
2022-10-24T14:26:49.357Z,98673.50
2022-10-24T14:29:27.803Z,98685.97
2022-10-24T14:31:58.352Z,98682.03
2022-10-24T14:34:25.703Z,98669.91
2022-10-24T14:36:53.468Z,98689.50
2022-10-24T14:39:23.843Z,98683.44
2022-10-24T14:41:52.357Z,98685.72
2022-10-24T14:44:24.213Z,98681.81
2022-10-24T14:47:06.178Z,98689.56
2022-10-24T14:49:36.682Z,98678.72
2022-10-24T14:52:16.854Z,98688.91
2022-10-24T14:54:52.474Z,98692.47
2022-10-24T14:57:21.751Z,98700.78
2022-10-24T14:59:52.507Z,98697.84
2022-10-24T15:02:37.583Z,98710.34
2022-10-24T15:05:15.307Z,98705.56
2022-10-24T15:07:57.161Z,98715.72
2022-10-24T15:10:35.268Z,98702.41
2022-10-24T15:13:12.288Z,98715.97
2022-10-24T15:15:57.476Z,98714.09
2022-10-24T15:18:30.872Z,98709.88
2022-10-24T15:21:13.874Z,98713.63
2022-10-24T15:23:49.173Z,98718.69
2022-10-24T15:26:32.929Z,98708.59
2022-10-24T15:29:02.299Z,98715.44
2022-10-24T15:31:31.735Z,98715.63
2022-10-24T15:33:58.226Z,98725.59
2022-10-24T15:36:31.629Z,98717.28
2022-10-24T15:39:19.106Z,98724.91
2022-10-24T15:41:46.060Z,98730.91
2022-10-24T15:44:20.997Z,98730.09
2022-10-24T15:46:48.661Z,98725.66
2022-10-24T15:49:16.546Z,98734.41
2022-10-24T15:51:49.025Z,98734.78
2022-10-24T15:54:19.301Z,98733.19
2022-10-24T15:56:47.019Z,98731.19
2022-10-24T15:59:13.610Z,98736.56
2022-10-24T16:01:48.390Z,98739.19
2022-10-24T16:04:15.752Z,98745.00
2022-10-24T16:06:42.574Z,98741.78
2022-10-24T16:09:17.602Z,98748.03
2022-10-24T16:11:44.418Z,98746.28
2022-10-24T16:14:22.290Z,98742.72
2022-10-24T16:16:49.118Z,98743.25
2022-10-24T16:19:15.565Z,98753.25
2022-10-24T16:21:42.387Z,98754.81
2022-10-24T16:24:12.365Z,98754.38
2022-10-24T16:26:38.939Z,98753.63
2022-10-24T16:29:05.879Z,98762.03
2022-10-24T16:31:32.508Z,98752.91
2022-10-24T16:33:59.741Z,98765.38
2022-10-24T16:36:27.209Z,98770.53
2022-10-24T16:38:53.778Z,98771.56
2022-10-24T16:41:25.856Z,98780.44
2022-10-24T16:43:57.235Z,98778.81
2022-10-24T16:46:26.019Z,98775.75
2022-10-24T16:48:52.998Z,98779.44
2022-10-24T16:51:24.577Z,98778.75
2022-10-24T16:53:51.370Z,98781.72
2022-10-24T16:56:17.809Z,98781.72
2022-10-24T16:58:44.576Z,98783.06
2022-10-24T17:01:14.338Z,98776.25
2022-10-24T17:03:41.325Z,98781.13
2022-10-24T17:06:08.415Z,98779.38
2022-10-24T17:08:34.966Z,98784.66
2022-10-24T17:11:01.541Z,98789.81
2022-10-24T17:13:28.971Z,98786.47
2022-10-24T17:15:56.441Z,98785.16
2022-10-24T17:18:25.498Z,98779.00
2022-10-24T17:20:58.805Z,98780.59
2022-10-24T17:23:26.593Z,98778.91
2022-10-24T17:25:53.937Z,98780.13
2022-10-24T17:28:20.564Z,98788.81
2022-10-24T17:30:48.318Z,98786.56
2022-10-24T17:33:15.033Z,98796.81
2022-10-24T17:35:55.182Z,98801.38
2022-10-24T17:38:48.993Z,98791.69
2022-10-24T17:41:25.002Z,98801.78
2022-10-24T17:43:53.673Z,98803.88
2022-10-24T17:46:20.588Z,98807.06
2022-10-24T17:48:47.280Z,98814.91
2022-10-24T17:51:17.892Z,98818.00
2022-10-24T17:53:45.048Z,98815.84
2022-10-24T17:58:43.822Z,98815.56
2022-10-24T18:01:11.815Z,98817.81
2022-10-24T18:03:38.795Z,98817.72
2022-10-24T18:06:07.338Z,98822.09
2022-10-24T18:08:33.996Z,98817.59
2022-10-24T18:11:05.625Z,98819.38
2022-10-24T18:13:34.922Z,98817.50
2022-10-24T18:16:09.276Z,98828.53
2022-10-24T18:18:36.212Z,98818.19
2022-10-24T18:21:24.649Z,98821.63
2022-10-24T18:23:52.356Z,98825.25
2022-10-24T18:26:22.856Z,98836.16
2022-10-24T18:28:51.208Z,98834.97
2022-10-24T18:31:21.182Z,98834.56
2022-10-24T18:33:48.897Z,98839.97
2022-10-24T18:36:20.474Z,98843.50
2022-10-24T18:38:47.139Z,98840.16
2022-10-24T18:41:29.275Z,98847.22
2022-10-24T18:43:57.505Z,98849.84
2022-10-24T18:46:24.958Z,98852.63
2022-10-24T18:48:52.106Z,98854.22
2022-10-24T18:51:55.119Z,98858.44
2022-10-24T18:54:21.746Z,98854.69
2022-10-24T18:56:49.734Z,98849.94
2022-10-24T18:59:20.658Z,98861.78
2022-10-24T19:02:29.689Z,98867.53
2022-10-24T19:05:15.659Z,98869.78
2022-10-24T19:07:42.856Z,98864.84
2022-10-24T19:10:24.592Z,98863.16
2022-10-24T19:12:51.869Z,98877.53
2022-10-24T19:15:19.318Z,98880.75
2022-10-24T19:17:47.339Z,98878.34
2022-10-24T19:20:20.235Z,98875.72
2022-10-24T19:22:47.453Z,98881.72
2022-10-24T19:25:15.217Z,98868.94
2022-10-24T19:27:42.434Z,98878.13
2022-10-24T19:30:11.395Z,98864.81
2022-10-24T19:32:37.935Z,98860.22
2022-10-24T19:35:04.791Z,98853.13
2022-10-24T19:37:31.929Z,98858.28
2022-10-24T19:39:58.661Z,98857.84
2022-10-24T19:42:26.378Z,98865.22
2022-10-24T19:44:56.157Z,98869.00
2022-10-24T19:47:22.833Z,98865.66
2022-10-24T19:49:50.122Z,98872.97
2022-10-24T19:52:16.908Z,98869.25
2022-10-24T19:54:43.751Z,98875.50
2022-10-24T19:57:11.405Z,98877.69
2022-10-24T19:59:38.163Z,98875.06
2022-10-24T20:02:05.313Z,98887.00
2022-10-24T20:04:33.182Z,98888.72
2022-10-24T20:06:59.749Z,98878.81
2022-10-24T20:09:26.174Z,98887.59
2022-10-24T20:11:52.715Z,98878.56
2022-10-24T20:14:19.379Z,98895.25
2022-10-24T20:16:46.020Z,98891.50
2022-10-24T20:19:12.449Z,98891.69
2022-10-24T20:21:39.131Z,98890.84
2022-10-24T20:24:06.213Z,98895.59
2022-10-24T20:26:33.191Z,98897.13
2022-10-24T20:28:59.713Z,98895.28
2022-10-24T20:31:33.805Z,98893.53
2022-10-24T20:34:06.722Z,98887.84
2022-10-24T20:36:35.907Z,98903.38
2022-10-24T20:39:02.469Z,98906.53
2022-10-24T20:41:29.455Z,98904.38
2022-10-24T20:43:56.143Z,98918.91
2022-10-24T20:46:23.274Z,98924.00
2022-10-24T20:48:49.682Z,98924.00
2022-10-24T20:51:18.562Z,98938.84
2022-10-24T20:53:45.455Z,98943.53
2022-10-24T20:56:17.808Z,98951.94
2022-10-24T20:58:45.106Z,98949.91
2022-10-24T21:01:15.396Z,98953.94
2022-10-24T21:03:43.113Z,98955.75
2022-10-24T21:06:23.238Z,98952.06
2022-10-24T21:08:51.161Z,98960.84
2022-10-24T21:11:25.047Z,98961.19
2022-10-24T21:13:53.993Z,98962.00
2022-10-24T21:16:20.734Z,98962.53
2022-10-24T21:18:47.241Z,98958.63
2022-10-24T21:21:15.715Z,98960.00
2022-10-24T21:23:42.548Z,98961.88
2022-10-24T21:26:12.290Z,98963.88
2022-10-24T21:28:39.467Z,98964.75
2022-10-24T21:31:11.547Z,98974.34
2022-10-24T21:33:41.245Z,98973.50
2022-10-24T21:36:19.513Z,98976.06
2022-10-24T21:38:47.836Z,98978.78
2022-10-24T21:41:14.839Z,98975.91
2022-10-24T21:43:42.230Z,98979.81
2022-10-24T21:46:20.631Z,98978.66
2022-10-24T21:48:49.803Z,98984.53
2022-10-24T21:51:21.889Z,98983.66
2022-10-24T21:53:51.216Z,98986.72
2022-10-24T21:56:20.274Z,98991.81
2022-10-24T21:58:48.476Z,98996.13
2022-10-24T22:01:19.198Z,98996.50
2022-10-24T22:03:46.230Z,99001.88
2022-10-24T22:06:16.470Z,99002.59
2022-10-24T22:08:44.186Z,99000.56
2022-10-24T22:11:14.337Z,99007.97
2022-10-24T22:13:41.500Z,99012.31
2022-10-24T22:16:10.381Z,99017.38
2022-10-24T22:18:37.430Z,99008.44
2022-10-24T22:21:06.049Z,99015.03
2022-10-24T22:23:33.085Z,99021.41
2022-10-24T22:26:01.952Z,99016.03
2022-10-24T22:28:28.724Z,99020.56
2022-10-24T22:30:55.756Z,99015.38
2022-10-24T22:33:32.089Z,99020.09
2022-10-24T22:36:03.074Z,99014.16
2022-10-24T22:38:29.870Z,99017.19
2022-10-24T22:40:56.666Z,99014.66
2022-10-24T22:43:23.348Z,99019.06
2022-10-24T22:46:28.223Z,99022.41
2022-10-24T22:48:59.561Z,99030.16
2022-10-24T22:51:26.861Z,99026.97
2022-10-24T22:53:53.549Z,99027.47
2022-10-24T22:56:27.745Z,99025.94
2022-10-24T22:58:54.484Z,99027.31
2022-10-24T23:01:50.657Z,99030.00
2022-10-24T23:04:40.827Z,99040.78
2022-10-24T23:07:28.746Z,99042.97
2022-10-24T23:09:55.269Z,99045.50
2022-10-24T23:12:23.162Z,99053.09
2022-10-24T23:14:50.512Z,99052.28
2022-10-24T23:17:28.804Z,99047.72
2022-10-24T23:19:56.678Z,99051.94
2022-10-24T23:22:28.410Z,99054.44
2022-10-24T23:24:58.327Z,99047.72
2022-10-24T23:27:44.678Z,99052.06
2022-10-24T23:30:22.600Z,99059.66
2022-10-24T23:32:50.590Z,99061.50
2022-10-24T23:35:19.609Z,99060.50
2022-10-24T23:37:48.570Z,99064.53
2022-10-24T23:40:17.870Z,99070.78
2022-10-24T23:42:45.847Z,99071.81
2022-10-24T23:45:18.007Z,99073.81
2022-10-24T23:48:27.860Z,99073.28
2022-10-24T23:51:02.028Z,99083.94
2022-10-24T23:53:34.256Z,99083.75
2022-10-24T23:56:01.053Z,99077.84
2022-10-24T23:58:27.552Z,99073.94
